Blytheville, AR (72316)

2:26 AM CST on December 05, 2016 (GMT -0600)
Blytheville Municipal | | Change Station

Elev 256 ft 35.94 °N, 89.83 °W | Updated 33 minutes ago

Overcast
Overcast
44 °F
Feels Like 41 °F
N
6
Wind Variable Wind from NE

Today
High -- | Low -- °F
--% Chance of Precip.
Yesterday
High -- | Low -- °F
Precip. -- in
Pressure 30.08 in
Visibility 10.0 miles
Clouds Overcast 1800 ft
Windchill 41 °F
Dew Point 38 °F
Humidity 79%
Rainfall 0.00 in
Snow Depth Not available.
6:55 AM 4:45 PM
Waxing Crescent, 29% visible
METAR KHKA 050753Z AUTO 05005KT 10SM OVC018 07/03 A3007 RMK AO2 SLP184 T00670033
Pressure 30.08 in
Visibility 10.0 miles
Clouds Overcast 1800 ft
Windchill 41 °F
Dew Point 38 °F
Humidity 79%
Rainfall 0.00 in
Snow Depth Not available.
6:55 AM 4:45 PM
Waxing Crescent, 29% visible
METAR KHKA 050753Z AUTO 05005KT 10SM OVC018 07/03 A3007 RMK AO2 SLP184 T00670033

10-Day Weather Forecast

Almanac

Astronomy

Dec. 05, 2016 Rise Set
Actual Time
Civil Twilight
Nautical Twilight
Astronomical Twilight
Moon
Length of Visible Light
Length of Day
Tomorrow will be .
, % of the Moon is Illuminated

Today's Extremes

State Highs State Lows

Community

WunderPhotos

Upload Photos

1,955,771 photos uploaded!

WunderBlog® & News

Nearby

Air Quality

  Air Quality AQ Index Pollutant
Not available.

Snow Depth

Station Depth Elevation

Earthquake Activity

City Distance Mag. Time & Date
Minimum magnitude displayed is 2.5.

Coastal Water Temperatures

Place Temperature

Stations

Nearby Weather Stations

Station Location Temp. Windchill Dew Point Humidity Wind Precip. Elev Updated Type
                   

Watches & Warnings

There are currently no watches in effect.